Time;durP1;ratioP1;P1;durP2;ratioP2;P2;SDS_P1;SDS_P2;PMS_P1;PMS_P2;Temp;Humidity;BMP_temperature;BMP_pressure;BME280_temperature;BME280_humidity;BME280_pressure;Samples;Min_cycle;Max_cycle;Signal;HPM_P1;HPM_P2
2023/06/28 00:00:32;;;;;;;;;;;;;;;23.31;53.76;101020.44;4985194;28;4143;-65
2023/06/28 00:03:00;;;;;;;;;;;;;;;23.31;53.97;101020.44;4990724;28;4373;-65
2023/06/28 00:05:26;;;;;;;;;;;;;;;23.30;53.79;101007.41;4985661;28;4344;-64
2023/06/28 00:07:53;;;;;;;;;;;;;;;23.30;53.78;101018.97;4983071;28;4127;-65
2023/06/28 00:10:19;;;;;;;;;;;;;;;23.29;53.80;101016.75;4984778;28;4170;-64
2023/06/28 00:12:46;;;;;;;;;;;;;;;23.30;53.78;101027.66;4985715;28;4073;-64
2023/06/28 00:15:12;;;;;;;;;;;;;;;23.29;53.70;101022.53;4981072;28;4455;-64
2023/06/28 00:17:38;;;;;;;;;;;;;;;23.29;53.79;101020.38;4984161;28;4179;-65
2023/06/28 00:20:08;;;;;;;;;;;;;;;23.29;53.98;101017.47;4984206;28;4165;-64
2023/06/28 00:22:34;;;;;;;;;;;;;;;23.28;54.05;101021.78;4984698;28;4057;-65
2023/06/28 00:25:01;;;;;;;;;;;;;;;23.28;53.75;101018.91;4988513;28;4218;-64
2023/06/28 00:27:27;;;;;;;;;;;;;;;23.27;54.05;101025.34;4991557;28;4008;-64
2023/06/28 00:29:55;;;;;;;;;;;;;;;23.27;53.91;101031.13;4982406;28;4049;-64
2023/06/28 00:32:22;;;;;;;;;;;;;;;23.28;53.97;101032.59;4981493;28;4153;-65
2023/06/28 00:34:48;;;;;;;;;;;;;;;23.27;54.03;101034.00;4985784;28;4205;-64
2023/06/28 00:37:15;;;;;;;;;;;;;;;23.26;53.95;101039.03;4985014;28;4148;-64
2023/06/28 00:39:41;;;;;;;;;;;;;;;23.26;54.03;101041.94;4982781;28;4138;-64
2023/06/28 00:42:08;;;;;;;;;;;;;;;23.25;54.15;101034.69;4988555;28;4160;-64
2023/06/28 00:44:34;;;;;;;;;;;;;;;23.25;53.84;101031.03;4979430;28;4258;-65
2023/06/28 00:47:01;;;;;;;;;;;;;;;23.25;54.07;101034.69;4979051;28;4385;-64
2023/06/28 00:49:28;;;;;;;;;;;;;;;23.25;54.12;101039.69;4986789;28;4260;-64
2023/06/28 00:51:56;;;;;;;;;;;;;;;23.25;53.95;101037.56;4984171;28;4046;-64
2023/06/28 00:54:22;;;;;;;;;;;;;;;23.24;53.99;101033.19;4984226;28;4121;-64
2023/06/28 00:56:51;;;;;;;;;;;;;;;23.24;54.22;101038.97;4999691;28;4372;-65
2023/06/28 00:59:17;;;;;;;;;;;;;;;23.24;54.00;101032.47;4986948;28;4987;-64
2023/06/28 01:01:44;;;;;;;;;;;;;;;23.22;54.17;101036.00;4985485;28;4080;-64
2023/06/28 01:04:13;;;;;;;;;;;;;;;23.22;54.25;101036.00;5000747;28;4055;-64
2023/06/28 01:06:40;;;;;;;;;;;;;;;23.22;53.85;101033.09;5000452;28;4058;-64
2023/06/28 01:09:10;;;;;;;;;;;;;;;23.22;54.27;101038.88;4983035;28;4295;-64
2023/06/28 01:11:36;;;;;;;;;;;;;;;23.21;53.95;101046.09;4986323;28;4147;-64
2023/06/28 01:14:03;;;;;;;;;;;;;;;23.21;54.22;101034.53;4985071;28;4183;-64
2023/06/28 01:16:29;;;;;;;;;;;;;;;23.20;54.29;101038.81;4999008;28;4205;-64
2023/06/28 01:18:56;;;;;;;;;;;;;;;23.22;53.95;101047.56;4986016;28;4182;-64
2023/06/28 01:21:22;;;;;;;;;;;;;;;23.23;54.23;101054.84;4999818;28;4515;-64
2023/06/28 01:23:49;;;;;;;;;;;;;;;23.21;54.09;101046.09;4993105;28;4043;-64
2023/06/28 01:26:16;;;;;;;;;;;;;;;23.22;54.08;101047.56;4985520;28;4130;-64
2023/06/28 01:28:43;;;;;;;;;;;;;;;23.21;54.31;101046.09;4980811;28;4400;-65
2023/06/28 01:31:11;;;;;;;;;;;;;;;23.21;54.33;101048.97;4996714;28;4223;-64
2023/06/28 01:33:41;;;;;;;;;;;;;;;23.20;54.31;101042.47;4985714;28;4331;-64
2023/06/28 01:36:08;;;;;;;;;;;;;;;23.19;54.27;101046.00;4988644;28;4067;-65
2023/06/28 01:38:35;;;;;;;;;;;;;;;23.18;54.26;101045.28;4984386;28;4373;-64
2023/06/28 01:41:02;;;;;;;;;;;;;;;23.19;54.41;101043.13;5003016;28;4014;-64
2023/06/28 01:43:30;;;;;;;;;;;;;;;23.19;54.34;101048.91;4991647;28;4314;-64
2023/06/28 01:45:57;;;;;;;;;;;;;;;23.17;54.10;101051.72;4985003;28;4380;-64
2023/06/28 01:48:23;;;;;;;;;;;;;;;23.17;54.46;101043.03;4987461;28;4109;-64
2023/06/28 01:50:50;;;;;;;;;;;;;;;23.16;54.45;101044.47;4986942;28;4071;-64
2023/06/28 01:53:17;;;;;;;;;;;;;;;23.16;54.32;101053.13;5002957;28;4227;-64
2023/06/28 01:55:44;;;;;;;;;;;;;;;23.15;54.41;101049.47;4985525;28;4034;-64
2023/06/28 01:58:11;;;;;;;;;;;;;;;23.15;54.16;101051.63;4983289;28;4574;-64
2023/06/28 02:00:37;;;;;;;;;;;;;;;23.15;54.41;101049.47;4983795;28;4045;-64
2023/06/28 02:03:04;;;;;;;;;;;;;;;23.14;54.44;101053.78;4984575;28;4236;-64
2023/06/28 02:05:31;;;;;;;;;;;;;;;23.14;54.22;101053.03;4986186;28;4130;-64
2023/06/28 02:07:58;;;;;;;;;;;;;;;23.14;54.44;101058.81;4982629;28;4250;-64
2023/06/28 02:10:24;;;;;;;;;;;;;;;23.14;54.35;101058.81;4996039;28;4539;-64
2023/06/28 02:12:51;;;;;;;;;;;;;;;23.13;54.33;101057.31;4984195;28;3960;-67
2023/06/28 02:15:17;;;;;;;;;;;;;;;23.12;54.45;101050.06;4998927;28;4226;-63
2023/06/28 02:17:44;;;;;;;;;;;;;;;23.12;54.43;101045.03;4985046;28;4890;-63
2023/06/28 02:20:10;;;;;;;;;;;;;;;23.12;54.43;101044.28;4985682;28;4049;-63
2023/06/28 02:22:39;;;;;;;;;;;;;;;23.11;54.48;101037.78;4987126;28;4161;-63
2023/06/28 02:25:06;;;;;;;;;;;;;;;23.10;54.56;101041.31;4988853;28;4115;-63
2023/06/28 02:27:32;;;;;;;;;;;;;;;23.10;54.13;101032.66;4985022;28;4108;-63
2023/06/28 02:29:58;;;;;;;;;;;;;;;23.10;54.34;101035.56;4984971;28;4037;-63
2023/06/28 02:32:25;;;;;;;;;;;;;;;23.10;54.44;101036.28;4984812;28;4158;-63
2023/06/28 02:34:51;;;;;;;;;;;;;;;23.09;54.27;101034.81;4985857;28;4091;-63
2023/06/28 02:37:18;;;;;;;;;;;;;;;23.10;54.42;101035.56;4998743;28;4187;-63
2023/06/28 02:39:45;;;;;;;;;;;;;;;23.08;54.26;101041.25;4986313;28;3977;-63
2023/06/28 02:42:11;;;;;;;;;;;;;;;23.08;54.57;101036.19;4984116;28;4187;-63
2023/06/28 02:44:39;;;;;;;;;;;;;;;23.07;54.44;101037.63;5001796;28;4231;-63
2023/06/28 02:47:06;;;;;;;;;;;;;;;23.07;54.40;101037.63;4983908;28;4202;-63
2023/06/28 02:49:32;;;;;;;;;;;;;;;23.07;54.35;101036.88;4980814;28;4118;-63
2023/06/28 02:51:59;;;;;;;;;;;;;;;23.07;54.24;101039.78;4980787;28;4325;-63
2023/06/28 02:54:25;;;;;;;;;;;;;;;23.06;54.52;101029.63;4981793;28;4038;-63
2023/06/28 02:56:52;;;;;;;;;;;;;;;23.06;54.33;101041.16;4997036;28;4053;-63
2023/06/28 02:59:39;;;;;;;;;;;;;;;23.06;54.45;101029.63;4985202;28;4183;-63
2023/06/28 03:02:05;;;;;;;;;;;;;;;23.06;54.46;101030.34;4993196;28;4456;-63
2023/06/28 03:04:32;;;;;;;;;;;;;;;23.05;54.40;101028.16;5000262;28;4113;-63
2023/06/28 03:07:01;;;;;;;;;;;;;;;23.05;54.42;101023.09;4979654;28;4145;-63
2023/06/28 03:09:27;;;;;;;;;;;;;;;23.05;54.31;101028.16;4978996;28;4136;-63
2023/06/28 03:11:53;;;;;;;;;;;;;;;23.05;54.16;101028.88;4986110;28;4016;-63
2023/06/28 03:14:20;;;;;;;;;;;;;;;23.05;54.29;101028.16;4985149;28;4288;-63
2023/06/28 03:16:46;;;;;;;;;;;;;;;23.05;54.26;101028.16;4982961;28;4189;-63
2023/06/28 03:19:13;;;;;;;;;;;;;;;23.04;54.10;101026.66;4979242;28;4161;-63
2023/06/28 03:21:41;;;;;;;;;;;;;;;23.05;54.28;101031.03;4983336;28;4188;-63
2023/06/28 03:24:07;;;;;;;;;;;;;;;23.05;54.31;101033.91;4983168;28;4395;-63
2023/06/28 03:26:34;;;;;;;;;;;;;;;23.05;54.32;101042.59;4982064;28;4326;-63
2023/06/28 03:29:00;;;;;;;;;;;;;;;23.04;54.15;101041.09;4982246;28;4168;-62
2023/06/28 03:31:31;;;;;;;;;;;;;;;23.04;54.26;101038.19;4980336;28;4056;-63
2023/06/28 03:33:59;;;;;;;;;;;;;;;23.03;54.02;101037.47;4985057;28;4550;-63
2023/06/28 03:36:27;;;;;;;;;;;;;;;23.03;54.13;101031.69;4999340;28;4111;-63
2023/06/28 03:38:54;;;;;;;;;;;;;;;23.03;53.87;101039.63;4982111;28;4415;-63
2023/06/28 03:41:20;;;;;;;;;;;;;;;23.02;53.98;101036.00;5000701;28;4275;-63
2023/06/28 03:43:48;;;;;;;;;;;;;;;23.02;54.21;101041.78;4999828;28;4059;-63
2023/06/28 03:46:15;;;;;;;;;;;;;;;23.03;54.13;101036.72;4982137;28;4233;-63
2023/06/28 03:48:41;;;;;;;;;;;;;;;23.02;54.20;101041.78;5004653;28;4133;-63
2023/06/28 03:51:07;;;;;;;;;;;;;;;23.04;54.05;101043.97;4983501;28;4213;-63
2023/06/28 03:53:34;;;;;;;;;;;;;;;23.02;54.12;101043.91;4980644;28;4132;-63
2023/06/28 03:56:00;;;;;;;;;;;;;;;23.02;53.87;101053.31;4984567;28;4031;-63
2023/06/28 03:58:27;;;;;;;;;;;;;;;23.02;54.21;101052.56;4975225;28;4142;-63
2023/06/28 04:00:53;;;;;;;;;;;;;;;23.00;54.01;101051.09;4982105;28;4203;-63
2023/06/28 04:03:20;;;;;;;;;;;;;;;23.00;53.99;101056.13;4983336;28;4152;-63
2023/06/28 04:05:46;;;;;;;;;;;;;;;23.00;53.92;101059.03;4985242;28;3998;-63
2023/06/28 04:08:13;;;;;;;;;;;;;;;23.02;54.16;101058.34;4978397;28;4132;-63
2023/06/28 04:10:39;;;;;;;;;;;;;;;23.00;53.96;101059.75;4982414;28;4036;-63
2023/06/28 04:13:06;;;;;;;;;;;;;;;22.99;53.98;101052.47;4988497;28;4147;-63
2023/06/28 04:15:32;;;;;;;;;;;;;;;22.99;54.04;101058.25;4982612;28;4052;-63
2023/06/28 04:17:59;;;;;;;;;;;;;;;22.97;54.18;101054.53;4981056;28;4140;-62
2023/06/28 04:20:26;;;;;;;;;;;;;;;22.97;54.12;101051.63;4982492;28;4173;-63
2023/06/28 04:22:52;;;;;;;;;;;;;;;22.97;54.08;101055.25;4983339;28;4183;-63
2023/06/28 04:25:19;;;;;;;;;;;;;;;22.96;54.38;101053.78;4999419;28;4241;-63
2023/06/28 04:27:45;;;;;;;;;;;;;;;22.98;54.29;101059.66;4984152;28;4210;-63
2023/06/28 04:30:11;;;;;;;;;;;;;;;22.97;54.13;101058.16;4980132;28;4137;-63
2023/06/28 04:32:38;;;;;;;;;;;;;;;22.97;54.43;101057.41;4985916;28;4198;-63
2023/06/28 04:35:05;;;;;;;;;;;;;;;22.95;54.46;101066.00;4982127;28;4199;-63
2023/06/28 04:37:31;;;;;;;;;;;;;;;22.40;54.13;101069.56;4976091;28;4158;-62
2023/06/28 04:39:59;;;;;;;;;;;;;;;22.07;53.49;101071.81;4983618;28;4373;-62
2023/06/28 04:42:26;;;;;;;;;;;;;;;22.07;53.63;101066.03;4986976;28;4129;-63
2023/06/28 04:44:54;;;;;;;;;;;;;;;22.43;53.07;101076.94;4987765;28;4076;-63
2023/06/28 04:47:20;;;;;;;;;;;;;;;22.63;52.42;101082.78;4990788;28;3997;-63
2023/06/28 04:49:48;;;;;;;;;;;;;;;22.73;52.58;101080.31;4988412;28;4090;-63
2023/06/28 04:52:15;;;;;;;;;;;;;;;22.80;52.58;101087.81;4987548;28;4039;-62
2023/06/28 04:54:41;;;;;;;;;;;;;;;22.84;52.27;101084.31;4986985;28;4597;-63
2023/06/28 04:57:07;;;;;;;;;;;;;;;22.86;52.30;101090.94;4987153;28;4255;-63
2023/06/28 04:59:34;;;;;;;;;;;;;;;22.86;52.45;101090.94;4988285;28;4135;-63
2023/06/28 05:02:03;;;;;;;;;;;;;;;22.87;52.88;101095.31;4988450;28;4462;-62
2023/06/28 05:04:32;;;;;;;;;;;;;;;22.87;52.90;101098.19;4987548;28;4607;-63
2023/06/28 05:07:01;;;;;;;;;;;;;;;22.87;52.90;101092.41;4990700;28;4493;-62
2023/06/28 05:09:28;;;;;;;;;;;;;;;22.86;52.78;101088.06;4988899;28;5376;-63
2023/06/28 05:11:55;;;;;;;;;;;;;;;22.88;53.00;101087.38;4991381;28;4067;-62
2023/06/28 05:14:23;;;;;;;;;;;;;;;22.87;53.31;101083.75;4990013;28;4074;-63
2023/06/28 05:16:49;;;;;;;;;;;;;;;22.87;52.94;101080.84;4994799;28;4011;-62
2023/06/28 05:19:15;;;;;;;;;;;;;;;22.88;53.46;101085.22;4989818;28;4046;-63
2023/06/28 05:21:42;;;;;;;;;;;;;;;22.87;53.37;101089.53;4987618;28;4115;-62
2023/06/28 05:24:08;;;;;;;;;;;;;;;22.86;53.56;101088.06;4989161;28;4138;-63
2023/06/28 05:26:35;;;;;;;;;;;;;;;22.87;53.41;101095.31;4988532;28;4391;-63
2023/06/28 05:29:01;;;;;;;;;;;;;;;22.86;53.47;101087.28;4989073;28;4043;-62
2023/06/28 05:31:27;;;;;;;;;;;;;;;22.87;53.79;101095.31;4985817;28;4213;-63
2023/06/28 05:33:54;;;;;;;;;;;;;;;22.87;53.80;101086.63;4990228;28;4141;-63
2023/06/28 05:36:22;;;;;;;;;;;;;;;22.87;53.78;101094.56;4985981;28;4172;-63
2023/06/28 05:38:48;;;;;;;;;;;;;;;22.88;53.62;101093.16;4985550;28;4543;-63
2023/06/28 05:41:15;;;;;;;;;;;;;;;22.88;53.87;101093.16;4988515;28;4179;-63
2023/06/28 05:43:45;;;;;;;;;;;;;;;22.86;53.65;101090.94;4988914;28;4252;-63
2023/06/28 05:46:11;;;;;;;;;;;;;;;22.88;53.90;101088.09;4985929;28;4929;-63
2023/06/28 05:48:38;;;;;;;;;;;;;;;22.87;53.94;101088.78;5003969;28;3998;-63
2023/06/28 05:51:10;;;;;;;;;;;;;;;22.87;53.94;101085.91;4985574;28;4153;-63
2023/06/28 05:53:37;;;;;;;;;;;;;;;22.87;53.91;101089.53;4992079;28;4428;-63
2023/06/28 05:56:03;;;;;;;;;;;;;;;22.86;53.74;101090.94;4991273;28;4481;-63
2023/06/28 05:58:30;;;;;;;;;;;;;;;22.87;54.08;101092.41;4991583;28;4369;-62
2023/06/28 06:00:56;;;;;;;;;;;;;;;22.85;53.78;101092.31;4984281;28;4438;-63
2023/06/28 06:03:23;;;;;;;;;;;;;;;22.89;54.04;101086.72;4986545;28;4177;-63
2023/06/28 06:05:49;;;;;;;;;;;;;;;22.93;53.99;101084.00;4992550;28;4017;-63
2023/06/28 06:08:16;;;;;;;;;;;;;;;22.94;53.94;101081.84;4985807;28;4605;-64
2023/06/28 06:10:42;;;;;;;;;;;;;;;22.91;53.99;101088.97;4986425;28;4162;-63
2023/06/28 06:13:09;;;;;;;;;;;;;;;22.86;53.25;101087.28;4991440;28;4034;-63
2023/06/28 06:15:35;;;;;;;;;;;;;;;22.52;53.26;101096.06;4987086;28;4169;-63
2023/06/28 06:18:02;;;;;;;;;;;;;;;22.18;52.78;101093.19;4987526;28;3982;-64
2023/06/28 06:20:28;;;;;;;;;;;;;;;21.90;53.69;101092.72;4985097;28;4474;-63
2023/06/28 06:22:55;;;;;;;;;;;;;;;21.99;53.38;101097.44;4985154;28;4168;-63
2023/06/28 06:25:21;;;;;;;;;;;;;;;22.21;53.14;101091.13;4991528;28;3999;-63
2023/06/28 06:27:47;;;;;;;;;;;;;;;22.37;52.73;101086.78;4986021;28;4074;-63
2023/06/28 06:30:14;;;;;;;;;;;;;;;22.40;52.55;101096.28;4983700;28;4256;-63
2023/06/28 06:32:40;;;;;;;;;;;;;;;22.49;52.36;101103.13;4988447;28;4125;-62
2023/06/28 06:35:07;;;;;;;;;;;;;;;22.54;52.33;101102.66;4988794;28;4202;-63
2023/06/28 06:37:33;;;;;;;;;;;;;;;22.53;52.44;101104.03;4986397;28;4373;-63
2023/06/28 06:40:00;;;;;;;;;;;;;;;22.52;52.53;101102.56;4981836;28;4181;-63
2023/06/28 06:42:26;;;;;;;;;;;;;;;22.40;53.24;101113.59;4985015;28;4344;-63
2023/06/28 06:44:52;;;;;;;;;;;;;;;22.54;52.61;101111.31;4985650;28;4338;-63
2023/06/28 06:47:19;;;;;;;;;;;;;;;22.51;52.49;101109.00;4984682;28;4873;-63
2023/06/28 06:49:45;;;;;;;;;;;;;;;22.50;52.54;101111.13;4988388;28;4092;-62
2023/06/28 06:52:12;;;;;;;;;;;;;;;22.48;52.52;101113.94;4981287;28;4236;-62
2023/06/28 06:54:38;;;;;;;;;;;;;;;22.47;52.72;101106.69;4983881;28;4162;-63
2023/06/28 06:57:05;;;;;;;;;;;;;;;22.37;52.59;101115.66;4987679;28;4195;-63
2023/06/28 06:59:32;;;;;;;;;;;;;;;22.31;52.33;101106.00;4986859;28;4042;-63
2023/06/28 07:01:58;;;;;;;;;;;;;;;22.32;52.48;101113.25;4986236;28;4174;-63
2023/06/28 07:04:25;;;;;;;;;;;;;;;22.29;52.34;101115.31;4985502;28;4246;-63
2023/06/28 07:06:51;;;;;;;;;;;;;;;22.34;52.16;101116.22;4987774;28;4269;-63
2023/06/28 07:09:18;;;;;;;;;;;;;;;22.30;51.99;101121.81;4984076;28;4137;-63
2023/06/28 07:11:44;;;;;;;;;;;;;;;22.28;52.04;101124.63;4985192;28;4291;-63
2023/06/28 07:14:11;;;;;;;;;;;;;;;22.27;52.29;101120.25;4985608;28;4140;-66
2023/06/28 07:16:37;;;;;;;;;;;;;;;22.46;51.70;101124.66;4979915;28;4185;-64
2023/06/28 07:19:05;;;;;;;;;;;;;;;22.51;51.53;101135.69;4984114;28;4484;-64
2023/06/28 07:21:32;;;;;;;;;;;;;;;22.42;51.77;101122.31;4980479;28;4344;-65
2023/06/28 07:23:58;;;;;;;;;;;;;;;22.47;51.86;101124.00;4985756;28;4171;-64
2023/06/28 07:26:25;;;;;;;;;;;;;;;22.56;51.46;101131.59;4980635;28;4194;-64
2023/06/28 07:28:51;;;;;;;;;;;;;;;22.62;51.57;101133.25;4985240;28;4040;-64
2023/06/28 07:31:17;;;;;;;;;;;;;;;22.63;51.25;101128.94;4982735;28;4174;-65
2023/06/28 07:33:44;;;;;;;;;;;;;;;22.67;51.78;101126.22;4988598;28;4011;-65
2023/06/28 07:36:10;;;;;;;;;;;;;;;22.70;51.65;101130.69;4984711;28;4199;-65
2023/06/28 07:38:37;;;;;;;;;;;;;;;22.71;51.71;101126.41;4983120;28;4024;-65
2023/06/28 07:41:03;;;;;;;;;;;;;;;22.72;52.07;101119.22;4983198;28;4131;-64
2023/06/28 07:43:32;;;;;;;;;;;;;;;22.75;51.98;101123.69;4981856;28;4048;-65
2023/06/28 07:46:00;;;;;;;;;;;;;;;22.76;51.90;101119.38;4984039;28;4053;-64
2023/06/28 07:48:27;;;;;;;;;;;;;;;22.77;52.04;101120.88;4987112;28;4060;-65
2023/06/28 07:50:54;;;;;;;;;;;;;;;22.77;52.15;101127.41;4984267;28;4070;-65
2023/06/28 07:53:21;;;;;;;;;;;;;;;22.79;52.10;101112.28;4980638;28;4218;-65
2023/06/28 07:55:47;;;;;;;;;;;;;;;22.79;52.47;101129.59;4981687;28;4071;-65
2023/06/28 07:58:14;;;;;;;;;;;;;;;22.78;52.17;101122.38;4982012;28;4130;-65
2023/06/28 08:00:40;;;;;;;;;;;;;;;22.78;52.08;101122.38;4981214;28;4029;-64
2023/06/28 08:03:07;;;;;;;;;;;;;;;22.81;52.14;101126.81;4998235;28;4199;-64
2023/06/28 08:05:34;;;;;;;;;;;;;;;22.83;52.40;101129.78;4984160;28;4308;-64
2023/06/28 08:08:00;;;;;;;;;;;;;;;22.81;52.76;101121.03;4982084;28;4174;-65
2023/06/28 08:10:27;;;;;;;;;;;;;;;22.84;52.68;101125.50;4982401;28;4413;-63
2023/06/28 08:12:54;;;;;;;;;;;;;;;22.86;53.36;101127.72;4988634;28;4039;-63
2023/06/28 08:15:21;;;;;;;;;;;;;;;22.88;53.37;101125.66;4988968;28;4213;-62
2023/06/28 08:17:47;;;;;;;;;;;;;;;22.87;53.08;101129.94;4987515;28;4520;-65
2023/06/28 08:20:14;;;;;;;;;;;;;;;22.87;53.28;101129.22;4984818;28;4029;-64
2023/06/28 08:22:40;;;;;;;;;;;;;;;22.86;53.32;101134.25;4986448;28;4232;-64
2023/06/28 08:25:06;;;;;;;;;;;;;;;22.86;53.32;101128.47;4985881;28;4140;-64
2023/06/28 08:27:33;;;;;;;;;;;;;;;22.86;53.46;101140.03;4985176;28;4206;-64
2023/06/28 08:29:59;;;;;;;;;;;;;;;22.86;53.41;101145.81;4987629;28;4009;-64
2023/06/28 08:32:26;;;;;;;;;;;;;;;22.85;53.28;101138.53;4985166;28;4166;-64
2023/06/28 08:34:52;;;;;;;;;;;;;;;22.86;53.40;101140.03;4990287;28;4013;-64
2023/06/28 08:37:18;;;;;;;;;;;;;;;22.87;53.57;101138.59;4992393;28;4092;-64
2023/06/28 08:39:45;;;;;;;;;;;;;;;22.87;53.51;101138.59;5001428;28;4025;-64
2023/06/28 08:42:12;;;;;;;;;;;;;;;22.87;53.35;101127.06;4988426;28;4984;-64
2023/06/28 08:44:39;;;;;;;;;;;;;;;22.89;53.48;101135.06;5001453;28;4059;-64
2023/06/28 08:47:05;;;;;;;;;;;;;;;22.89;53.27;101129.28;4983930;28;4299;-64
2023/06/28 08:49:32;;;;;;;;;;;;;;;22.89;53.38;101127.16;4986398;28;3983;-64
2023/06/28 08:51:59;;;;;;;;;;;;;;;22.91;53.55;101130.13;5001251;28;3987;-62
2023/06/28 08:54:28;;;;;;;;;;;;;;;22.91;53.66;101135.91;4989258;28;3903;-64
2023/06/28 08:56:57;;;;;;;;;;;;;;;22.92;53.39;101130.84;4989229;28;4093;-64
2023/06/28 08:59:37;;;;;;;;;;;;;;;22.92;53.70;101134.47;4984307;28;4042;-64
2023/06/28 09:02:03;;;;;;;;;;;;;;;22.93;53.29;101132.31;5004972;28;4065;-64
2023/06/28 09:04:30;;;;;;;;;;;;;;;22.93;53.45;101133.09;4990174;28;4177;-65
2023/06/28 09:06:56;;;;;;;;;;;;;;;22.93;53.68;101132.31;4995283;28;3862;-64
2023/06/28 09:09:23;;;;;;;;;;;;;;;22.94;53.75;101128.78;4988256;28;3989;-64
2023/06/28 09:11:49;;;;;;;;;;;;;;;22.95;53.81;101129.53;5003746;28;4113;-64
2023/06/28 09:14:16;;;;;;;;;;;;;;;22.95;53.75;101138.19;4985704;28;4119;-64
2023/06/28 09:16:42;;;;;;;;;;;;;;;22.96;53.77;101137.53;4983601;28;4177;-64
2023/06/28 09:19:08;;;;;;;;;;;;;;;22.92;53.83;101131.59;4983057;28;4185;-64
2023/06/28 09:21:35;;;;;;;;;;;;;;;22.99;53.49;101133.34;4987507;28;4565;-64
2023/06/28 09:24:01;;;;;;;;;;;;;;;22.99;53.68;101136.22;4988597;28;4118;-63
2023/06/28 09:26:31;;;;;;;;;;;;;;;22.99;53.78;101133.34;4993644;28;4158;-64
2023/06/28 09:29:09;;;;;;;;;;;;;;;22.99;53.63;101127.56;4985520;28;4138;-64
2023/06/28 09:31:42;;;;;;;;;;;;;;;22.99;53.77;101130.47;4986380;28;3993;-64
2023/06/28 09:34:08;;;;;;;;;;;;;;;22.98;53.94;101120.28;4988543;28;4936;-64
2023/06/28 09:36:38;;;;;;;;;;;;;;;22.98;53.79;101128.97;4989658;28;4003;-64
2023/06/28 09:39:04;;;;;;;;;;;;;;;23.00;53.83;101122.56;4988469;28;4134;-64
2023/06/28 09:41:37;;;;;;;;;;;;;;;22.99;53.94;101153.56;4986072;28;4198;-67
2023/06/28 09:44:04;;;;;;;;;;;;;;;22.69;52.19;101132.09;4986889;28;4140;-65
2023/06/28 09:46:32;;;;;;;;;;;;;;;22.74;51.82;101131.59;4989785;28;4138;-64
2023/06/28 09:48:58;;;;;;;;;;;;;;;22.70;51.55;101140.09;4992678;28;4058;-65
2023/06/28 09:51:25;;;;;;;;;;;;;;;22.40;49.84;101139.56;4988543;28;3971;-65
2023/06/28 09:53:54;;;;;;;;;;;;;;;22.25;49.08;101143.25;4990619;28;4408;-64
2023/06/28 09:56:21;;;;;;;;;;;;;;;22.38;49.55;101137.34;4991312;28;4003;-65
2023/06/28 09:58:47;;;;;;;;;;;;;;;22.54;49.77;101134.41;4989759;28;4134;-65
2023/06/28 10:01:14;;;;;;;;;;;;;;;22.57;49.83;101138.84;4987820;28;4109;-64
2023/06/28 10:03:41;;;;;;;;;;;;;;;22.21;48.64;101140.91;4989219;28;4120;-64
2023/06/28 10:06:07;;;;;;;;;;;;;;;22.29;48.62;101137.66;4988734;28;4000;-65
2023/06/28 10:08:34;;;;;;;;;;;;;;;22.23;48.28;101137.38;4985230;28;4097;-65
2023/06/28 10:11:00;;;;;;;;;;;;;;;22.31;48.26;101129.06;4988104;28;4197;-63
2023/06/28 10:13:27;;;;;;;;;;;;;;;22.22;48.24;101133.78;4990521;28;3924;-65
2023/06/28 10:15:58;;;;;;;;;;;;;;;22.27;48.02;101132.53;5002026;28;3998;-65
2023/06/28 10:18:25;;;;;;;;;;;;;;;22.21;48.18;101140.16;4996192;28;4221;-65
2023/06/28 10:20:51;;;;;;;;;;;;;;;22.21;48.27;101143.03;4989421;28;4168;-65
2023/06/28 10:23:18;;;;;;;;;;;;;;;22.26;47.82;101147.59;4987341;28;4127;-65
2023/06/28 10:25:44;;;;;;;;;;;;;;;22.29;48.12;101143.44;4991749;28;3956;-64
2023/06/28 10:28:12;;;;;;;;;;;;;;;22.27;48.16;101146.22;4989432;28;4014;-64
2023/06/28 10:30:39;;;;;;;;;;;;;;;21.86;47.88;101127.13;4989927;28;4151;-64
2023/06/28 10:33:06;;;;;;;;;;;;;;;22.14;47.72;101145.66;4990896;28;4023;-64
2023/06/28 10:35:32;;;;;;;;;;;;;;;22.04;47.66;101138.72;4987331;28;4166;-65
2023/06/28 10:37:58;;;;;;;;;;;;;;;22.06;47.05;101128.00;4988557;28;3984;-64
2023/06/28 10:40:25;;;;;;;;;;;;;;;21.93;46.73;101120.22;4988418;28;4443;-64
2023/06/28 10:42:51;;;;;;;;;;;;;;;22.12;47.11;101130.41;4990161;28;4045;-65
2023/06/28 10:45:31;;;;;;;;;;;;;;;22.11;47.52;101126.78;4995379;28;4018;-65
2023/06/28 10:47:57;;;;;;;;;;;;;;;22.06;47.78;101133.78;4995567;28;4087;-64
2023/06/28 10:50:24;;;;;;;;;;;;;;;22.26;48.39;101133.91;5001886;28;6103;-65
2023/06/28 10:52:54;;;;;;;;;;;;;;;22.07;48.40;101140.28;4968961;28;3949;-65
2023/06/28 10:55:21;;;;;;;;;;;;;;;21.78;48.41;101139.00;4979812;28;4111;-73
2023/06/28 10:58:02;;;;;;;;;;;;;;;22.22;47.80;101128.00;4974881;28;4037;-67
2023/06/28 11:00:42;;;;;;;;;;;;;;;22.46;48.05;101134.03;4992937;28;6957;-66
2023/06/28 11:03:09;;;;;;;;;;;;;;;22.57;48.71;101115.03;4990139;28;4042;-66
2023/06/28 11:05:44;;;;;;;;;;;;;;;22.65;48.80;101121.09;4986679;28;3984;-66
2023/06/28 11:08:12;;;;;;;;;;;;;;;22.69;49.15;101127.06;4983830;28;4157;-66
2023/06/28 11:10:38;;;;;;;;;;;;;;;22.72;49.06;101136.53;4987839;28;4102;-65
2023/06/28 11:13:48;;;;;;;;;;;;;;;22.76;49.14;101142.47;4984480;28;4161;-65
2023/06/28 11:16:19;;;;;;;;;;;;;;;22.79;49.45;101136.16;4923524;28;4173;-67
2023/06/28 11:18:46;;;;;;;;;;;;;;;22.80;49.26;101140.50;4928046;28;3976;-67
2023/06/28 11:21:15;;;;;;;;;;;;;;;22.83;49.63;101135.56;4952475;28;4144;-67
2023/06/28 11:23:43;;;;;;;;;;;;;;;22.85;49.70;101144.31;4969806;28;4139;-66
2023/06/28 11:26:13;;;;;;;;;;;;;;;22.86;49.93;101140.03;4991560;28;4086;-67
2023/06/28 11:28:49;;;;;;;;;;;;;;;22.88;50.08;101142.97;4999606;28;3949;-65
2023/06/28 11:31:26;;;;;;;;;;;;;;;22.90;50.23;101134.41;4986183;28;4138;-66
2023/06/28 11:33:54;;;;;;;;;;;;;;;22.93;50.29;101126.56;4982710;28;4176;-68
2023/06/28 11:36:24;;;;;;;;;;;;;;;22.93;50.75;101132.31;4997124;28;4485;-66
2023/06/28 11:38:50;;;;;;;;;;;;;;;22.95;50.86;101143.97;5001431;28;4363;-66
2023/06/28 11:41:16;;;;;;;;;;;;;;;22.94;51.06;101140.34;4988239;28;4444;-66
2023/06/28 11:43:43;;;;;;;;;;;;;;;22.97;51.05;101138.28;4984871;28;3992;-66
2023/06/28 11:46:09;;;;;;;;;;;;;;;22.97;50.96;101141.91;4984318;28;5134;-66
2023/06/28 11:48:36;;;;;;;;;;;;;;;22.97;51.48;101141.16;4984624;28;4139;-66
2023/06/28 11:51:05;;;;;;;;;;;;;;;22.99;51.28;101136.22;4985165;28;4087;-66
2023/06/28 11:53:32;;;;;;;;;;;;;;;22.97;51.63;101133.22;4985951;28;4094;-66
2023/06/28 11:55:58;;;;;;;;;;;;;;;23.00;51.45;101137.72;4985683;28;4124;-66
2023/06/28 11:58:28;;;;;;;;;;;;;;;23.02;51.85;101139.19;4981997;28;4114;-66
2023/06/28 12:00:54;;;;;;;;;;;;;;;23.02;51.65;101139.19;4986379;28;4162;-66
2023/06/28 12:03:33;;;;;;;;;;;;;;;23.02;52.06;101139.97;4988700;28;4163;-66
2023/06/28 12:06:00;;;;;;;;;;;;;;;23.04;52.23;101145.81;4983146;28;4179;-65
2023/06/28 12:08:31;;;;;;;;;;;;;;;23.05;52.31;101143.69;4988373;28;4044;-66
2023/06/28 12:10:57;;;;;;;;;;;;;;;23.07;52.03;101129.31;4988525;28;4142;-66
2023/06/28 12:13:24;;;;;;;;;;;;;;;23.07;52.36;101129.31;4987739;28;4346;-66
2023/06/28 12:15:52;;;;;;;;;;;;;;;23.09;52.45;101138.03;4991009;28;3895;-66
2023/06/28 12:18:18;;;;;;;;;;;;;;;23.09;52.69;101132.25;4987844;28;3960;-66
2023/06/28 12:20:45;;;;;;;;;;;;;;;23.07;52.75;101140.88;4985339;28;4034;-67
2023/06/28 12:23:12;;;;;;;;;;;;;;;23.10;52.72;101127.97;4988969;28;4151;-66
2023/06/28 12:25:42;;;;;;;;;;;;;;;23.12;52.99;101125.19;4990666;28;4163;-66
2023/06/28 12:28:12;;;;;;;;;;;;;;;23.11;53.08;101130.22;4988608;28;4353;-66
2023/06/28 12:30:38;;;;;;;;;;;;;;;23.12;53.34;101136.72;4989859;28;4075;-66
2023/06/28 12:33:06;;;;;;;;;;;;;;;23.10;53.26;101133.75;4992815;28;4943;-66
2023/06/28 12:35:33;;;;;;;;;;;;;;;23.13;53.29;101126.66;4984162;28;4095;-66
2023/06/28 12:38:01;;;;;;;;;;;;;;;23.14;53.39;101128.16;4983501;28;4217;-66
2023/06/28 12:40:31;;;;;;;;;;;;;;;23.14;53.64;101134.66;4991911;28;4111;-67
2023/06/28 12:43:08;;;;;;;;;;;;;;;23.15;53.50;101133.25;4987160;28;4019;-66
2023/06/28 12:45:39;;;;;;;;;;;;;;;23.16;53.61;101131.13;4988753;28;4187;-66
2023/06/28 12:48:06;;;;;;;;;;;;;;;23.20;53.57;101134.91;4987454;28;4502;-65